createdAt,value
2018-05-01T00:00:00.816Z,6.40
2018-05-01T00:02:30.656Z,6.30
2018-05-01T00:04:58.428Z,6.30
2018-05-01T00:07:25.583Z,6.30
2018-05-01T00:09:52.734Z,6.30
2018-05-01T00:12:21.834Z,6.20
2018-05-01T00:14:48.992Z,6.10
2018-05-01T00:17:16.149Z,6.10
2018-05-01T00:19:43.100Z,6.10
2018-05-01T00:22:10.055Z,6.10
2018-05-01T00:24:40.219Z,6.10
2018-05-01T00:27:07.841Z,6.20
2018-05-01T00:29:35.204Z,6.20
2018-05-01T00:32:02.462Z,6.30
2018-05-01T00:34:29.523Z,6.30
2018-05-01T00:36:57.590Z,6.20
2018-05-01T00:39:24.954Z,6.10
2018-05-01T00:41:52.414Z,6.10
2018-05-01T00:44:22.494Z,6.10
2018-05-01T00:46:50.828Z,6.10
2018-05-01T00:49:20.629Z,6.00
2018-05-01T00:51:49.161Z,6.00
2018-05-01T00:54:17.816Z,6.00
2018-05-01T00:56:45.178Z,6.00
2018-05-01T00:59:12.741Z,6.00
2018-05-01T01:01:39.699Z,5.90
2018-05-01T01:04:08.625Z,5.90
2018-05-01T01:06:36.049Z,5.90
2018-05-01T01:09:03.294Z,5.90
2018-05-01T01:11:30.258Z,5.90
2018-05-01T01:13:57.209Z,5.90
2018-05-01T01:16:24.064Z,5.90
2018-05-01T01:18:51.011Z,5.90
2018-05-01T01:21:17.859Z,5.90
2018-05-01T01:23:44.915Z,5.90
2018-05-01T01:26:11.763Z,5.80
2018-05-01T01:28:38.919Z,5.90
2018-05-01T01:31:05.768Z,5.90
2018-05-01T01:33:32.718Z,5.90
2018-05-01T01:35:59.363Z,5.90
2018-05-01T01:38:26.214Z,5.90
2018-05-01T01:40:52.858Z,5.90
2018-05-01T01:43:19.810Z,5.90
2018-05-01T01:45:46.352Z,5.90
2018-05-01T01:48:12.909Z,6.10
2018-05-01T01:50:39.434Z,6.00
2018-05-01T01:53:06.081Z,6.00
2018-05-01T01:55:33.031Z,5.90
2018-05-01T01:58:00.492Z,5.90
2018-05-01T02:00:27.140Z,5.90
2018-05-01T02:02:53.788Z,5.90
2018-05-01T02:05:20.528Z,5.90
2018-05-01T02:07:47.586Z,6.00
2018-05-01T02:10:14.436Z,5.90
2018-05-01T02:12:40.973Z,5.90
2018-05-01T02:15:07.521Z,5.90
2018-05-01T02:17:34.161Z,5.80
2018-05-01T02:20:00.806Z,5.70
2018-05-01T02:22:27.448Z,5.70
2018-05-01T02:24:54.197Z,5.70
2018-05-01T02:27:21.253Z,5.60
2018-05-01T02:29:47.895Z,5.70
2018-05-01T02:32:14.434Z,5.60
2018-05-01T02:34:40.983Z,5.60
2018-05-01T02:37:07.928Z,5.60
2018-05-01T02:39:34.459Z,5.60
2018-05-01T02:42:01.534Z,5.70
2018-05-01T02:44:28.373Z,5.70
2018-05-01T02:46:55.122Z,5.60
2018-05-01T02:49:22.483Z,5.60
2018-05-01T02:51:49.434Z,5.60
2018-05-01T02:54:16.386Z,5.60
2018-05-01T02:56:42.924Z,5.60
2018-05-01T02:59:09.875Z,5.70
2018-05-01T03:01:36.519Z,5.60
2018-05-01T03:04:03.165Z,5.60
2018-05-01T03:06:29.810Z,5.60
2018-05-01T03:08:57.379Z,5.70
2018-05-01T03:11:24.430Z,5.70
2018-05-01T03:13:51.480Z,5.70
2018-05-01T03:16:18.534Z,5.80
2018-05-01T03:18:45.283Z,5.70
2018-05-01T03:21:11.928Z,5.70
2018-05-01T03:23:38.570Z,5.70
2018-05-01T03:26:06.036Z,5.60
2018-05-01T03:28:33.086Z,5.60
2018-05-01T03:31:00.141Z,5.70
2018-05-01T03:33:27.205Z,5.70
2018-05-01T03:35:53.845Z,5.60
2018-05-01T03:38:20.893Z,5.60
2018-05-01T03:40:47.740Z,5.70
2018-05-01T03:43:14.588Z,5.70
2018-05-01T03:45:41.132Z,5.70
2018-05-01T03:48:07.775Z,5.70
2018-05-01T03:50:35.138Z,5.80
2018-05-01T03:53:01.986Z,5.80
2018-05-01T03:55:28.529Z,5.80
2018-05-01T03:57:55.403Z,5.80
2018-05-01T04:00:22.434Z,5.80
2018-05-01T04:02:49.384Z,5.80
2018-05-01T04:05:16.437Z,5.70
2018-05-01T04:07:43.190Z,5.70
2018-05-01T04:10:10.237Z,5.70
2018-05-01T04:12:36.779Z,5.70
2018-05-01T04:15:03.728Z,5.70
2018-05-01T04:17:31.296Z,5.80
2018-05-01T04:19:59.175Z,5.80
2018-05-01T04:22:25.810Z,5.80
2018-05-01T04:24:53.272Z,5.80
2018-05-01T04:27:20.021Z,5.80
2018-05-01T04:29:46.665Z,5.80
2018-05-01T04:32:13.308Z,5.90
2018-05-01T04:34:40.187Z,5.80
2018-05-01T04:37:06.800Z,5.80
2018-05-01T04:39:33.650Z,5.80
2018-05-01T04:42:00.605Z,5.80
2018-05-01T04:44:27.249Z,5.80
2018-05-01T04:46:53.798Z,5.80
2018-05-01T04:49:22.173Z,5.80
2018-05-01T04:51:48.778Z,5.70
2018-05-01T04:54:15.361Z,5.80
2018-05-01T04:56:42.412Z,5.80
2018-05-01T04:59:09.060Z,5.70
2018-05-01T05:01:36.624Z,5.80
2018-05-01T05:04:03.085Z,5.80
2018-05-01T05:06:30.117Z,5.90
2018-05-01T05:08:57.066Z,5.80
2018-05-01T05:11:23.712Z,5.90
2018-05-01T05:13:50.764Z,5.80
2018-05-01T05:16:17.412Z,5.90
2018-05-01T05:18:44.462Z,5.90
2018-05-01T05:21:11.409Z,5.90
2018-05-01T05:23:38.027Z,5.80
2018-05-01T05:26:04.705Z,5.80
2018-05-01T05:28:32.372Z,5.80
2018-05-01T05:30:59.122Z,5.70
2018-05-01T05:33:25.764Z,5.80
2018-05-01T05:35:52.815Z,5.90
2018-05-01T05:38:19.466Z,5.90
2018-05-01T05:40:46.107Z,6.00
2018-05-01T05:43:12.955Z,6.00
2018-05-01T05:45:40.006Z,5.90
2018-05-01T05:48:07.072Z,6.00
2018-05-01T05:50:35.038Z,6.00
2018-05-01T05:53:01.686Z,5.90
2018-05-01T05:55:28.323Z,5.90
2018-05-01T05:57:55.888Z,5.90
2018-05-01T06:00:22.738Z,5.90
2018-05-01T06:02:49.226Z,6.00
2018-05-01T06:05:16.336Z,5.90
2018-05-01T06:07:43.454Z,5.90
2018-05-01T06:10:10.442Z,5.90
2018-05-01T06:12:37.405Z,5.90
2018-05-01T06:15:04.044Z,5.90
2018-05-01T06:17:30.681Z,5.90
2018-05-01T06:19:57.634Z,6.00
2018-05-01T06:22:24.687Z,6.10
2018-05-01T06:24:51.537Z,6.10
2018-05-01T06:27:19.715Z,6.30
2018-05-01T06:29:46.767Z,6.30
2018-05-01T06:32:13.310Z,6.20
2018-05-01T06:34:39.878Z,6.20
2018-05-01T06:37:07.840Z,6.10
2018-05-01T06:39:35.700Z,6.00
2018-05-01T06:42:03.366Z,6.00
2018-05-01T06:44:30.214Z,6.00
2018-05-01T06:46:57.474Z,6.10
2018-05-01T06:49:24.015Z,6.20
2018-05-01T06:51:50.559Z,6.20
2018-05-01T06:54:17.517Z,6.20
2018-05-01T06:56:44.243Z,6.20
2018-05-01T06:59:11.111Z,6.10
2018-05-01T07:01:37.858Z,6.10
2018-05-01T07:04:04.907Z,6.30
2018-05-01T07:06:31.548Z,6.30
2018-05-01T07:08:58.193Z,6.20
2018-05-01T07:11:25.560Z,6.30
2018-05-01T07:13:52.201Z,6.20
2018-05-01T07:16:18.741Z,6.30
2018-05-01T07:18:45.384Z,6.30
2018-05-01T07:21:12.205Z,6.40
2018-05-01T07:23:38.882Z,6.50
2018-05-01T07:26:05.523Z,6.50
2018-05-01T07:28:32.575Z,6.60
2018-05-01T07:30:59.222Z,6.70
2018-05-01T07:33:26.992Z,6.70
2018-05-01T07:35:53.531Z,6.70
2018-05-01T07:38:20.588Z,6.70
2018-05-01T07:40:49.681Z,6.80
2018-05-01T07:43:16.628Z,6.80
2018-05-01T07:45:43.690Z,6.80
2018-05-01T07:48:10.848Z,6.90
2018-05-01T07:50:37.398Z,6.80
2018-05-01T07:53:03.932Z,6.80
2018-05-01T07:55:30.983Z,6.70
2018-05-01T07:57:57.526Z,6.70
2018-05-01T08:00:24.635Z,6.70
2018-05-01T08:02:52.045Z,6.70
2018-05-01T08:05:19.098Z,6.70
2018-05-01T08:07:46.156Z,6.70
2018-05-01T08:10:12.795Z,6.80
2018-05-01T08:12:42.823Z,7.10
2018-05-01T08:15:09.691Z,7.10
2018-05-01T08:17:36.615Z,7.10
2018-05-01T08:20:03.167Z,7.20
2018-05-01T08:22:30.110Z,7.20
2018-05-01T08:24:58.192Z,7.00
2018-05-01T08:27:24.831Z,7.00
2018-05-01T08:29:51.478Z,7.20
2018-05-01T08:32:18.530Z,7.30
2018-05-01T08:34:45.175Z,7.20
2018-05-01T08:37:12.226Z,7.20
2018-05-01T08:39:39.062Z,7.20
2018-05-01T08:42:06.539Z,7.20
2018-05-01T08:44:33.483Z,7.20
2018-05-01T08:47:00.648Z,7.00
2018-05-01T08:49:28.009Z,7.20
2018-05-01T08:51:54.656Z,7.20
2018-05-01T08:54:21.298Z,7.30
2018-05-01T08:56:47.839Z,7.40
2018-05-01T08:59:14.381Z,7.30
2018-05-01T09:01:41.337Z,7.20
2018-05-01T09:04:08.902Z,7.20
2018-05-01T09:06:36.677Z,7.30
2018-05-01T09:09:03.414Z,7.30
2018-05-01T09:11:30.160Z,7.50
2018-05-01T09:13:56.905Z,7.80
2018-05-01T09:16:23.651Z,7.90
2018-05-01T09:18:50.296Z,8.20
2018-05-01T09:21:17.761Z,8.30
2018-05-01T09:23:46.354Z,8.50
2018-05-01T09:26:14.541Z,8.50
2018-05-01T09:28:42.194Z,8.60
2018-05-01T09:31:08.942Z,8.50
2018-05-01T09:33:35.792Z,8.70
2018-05-01T09:36:02.553Z,8.70
2018-05-01T09:38:31.077Z,8.90
2018-05-01T09:40:58.077Z,9.30
2018-05-01T09:43:25.786Z,9.70
2018-05-01T09:45:52.696Z,9.70
2018-05-01T09:48:19.341Z,9.80
2018-05-01T09:50:46.339Z,9.60
2018-05-01T09:53:13.816Z,9.30
2018-05-01T09:55:41.155Z,9.50
2018-05-01T09:58:16.322Z,9.40
2018-05-01T10:00:44.435Z,9.60
2018-05-01T10:03:11.285Z,9.50
2018-05-01T10:05:38.338Z,9.70
2018-05-01T10:08:05.496Z,9.60
2018-05-01T10:10:33.161Z,9.80
2018-05-01T10:13:01.696Z,9.60
2018-05-01T10:15:29.314Z,9.80
2018-05-01T10:17:56.165Z,9.70
2018-05-01T10:20:24.242Z,9.90
2018-05-01T10:22:51.194Z,9.70
2018-05-01T10:25:18.553Z,9.60
2018-05-01T10:27:45.813Z,9.90
2018-05-01T10:30:12.761Z,9.80
2018-05-01T10:32:40.224Z,10.10
2018-05-01T10:35:07.762Z,10.00
2018-05-01T10:37:35.253Z,9.70
2018-05-01T10:40:02.044Z,9.70
2018-05-01T10:42:28.798Z,9.80
2018-05-01T10:44:55.703Z,9.60
2018-05-01T10:47:22.652Z,9.70
2018-05-01T10:49:49.703Z,9.80
2018-05-01T10:52:16.635Z,9.70
2018-05-01T10:54:45.425Z,9.70
2018-05-01T10:57:12.400Z,9.60
2018-05-01T10:59:39.656Z,9.70
2018-05-01T11:02:07.030Z,9.70
2018-05-01T11:04:33.959Z,9.60
2018-05-01T11:07:01.230Z,9.50
2018-05-01T11:09:28.488Z,9.50
2018-05-01T11:11:55.759Z,9.40
2018-05-01T11:14:23.619Z,9.50
2018-05-01T11:16:51.070Z,9.50
2018-05-01T11:19:18.030Z,9.80
2018-05-01T11:21:44.984Z,9.80
2018-05-01T11:24:12.751Z,9.70
2018-05-01T11:26:39.857Z,9.90
2018-05-01T11:29:07.814Z,10.90
2018-05-01T11:31:36.576Z,11.10
2018-05-01T11:34:03.533Z,11.10
2018-05-01T11:36:31.183Z,11.30
2018-05-01T11:38:58.352Z,11.30
2018-05-01T11:41:26.328Z,11.40
2018-05-01T11:43:53.167Z,11.30
2018-05-01T11:46:20.395Z,11.40
2018-05-01T11:48:47.945Z,11.70
2018-05-01T11:51:15.019Z,11.40
2018-05-01T11:53:41.846Z,11.30
2018-05-01T11:56:09.494Z,11.40
2018-05-01T11:58:36.725Z,11.40
2018-05-01T12:01:03.498Z,11.70
2018-05-01T12:03:30.524Z,11.90
2018-05-01T12:05:57.884Z,12.20
2018-05-01T12:08:25.042Z,11.90
2018-05-01T12:10:52.298Z,11.80
2018-05-01T12:13:19.556Z,12.20
2018-05-01T12:15:46.403Z,12.10
2018-05-01T12:18:13.255Z,12.00
2018-05-01T12:20:40.102Z,11.50
2018-05-01T12:23:07.539Z,11.10
2018-05-01T12:25:34.536Z,11.00
2018-05-01T12:28:01.675Z,10.80
2018-05-01T12:30:28.725Z,10.90
2018-05-01T12:32:57.521Z,11.00
2018-05-01T12:35:24.472Z,11.10
2018-05-01T12:37:52.040Z,11.10
2018-05-01T12:40:19.294Z,11.20
2018-05-01T12:42:47.067Z,11.20
2018-05-01T12:45:14.426Z,11.00
2018-05-01T12:47:42.197Z,10.90
2018-05-01T12:50:09.864Z,10.70
2018-05-01T12:52:37.020Z,10.70
2018-05-01T12:55:03.867Z,10.60
2018-05-01T12:57:31.362Z,10.60
2018-05-01T12:59:58.487Z,10.80
2018-05-01T13:02:25.440Z,10.80
2018-05-01T13:07:31.284Z,11.40
2018-05-01T13:09:58.652Z,11.20
2018-05-01T13:12:25.652Z,11.10
2018-05-01T13:14:52.483Z,11.20
2018-05-01T13:17:20.558Z,11.30
2018-05-01T13:19:48.085Z,11.20
2018-05-01T13:22:15.275Z,11.30
2018-05-01T13:24:42.393Z,11.50
2018-05-01T13:27:10.780Z,11.60
2018-05-01T13:29:37.629Z,11.60
2018-05-01T13:32:04.582Z,11.90
2018-05-01T13:34:31.941Z,12.10
2018-05-01T13:36:58.998Z,12.30
2018-05-01T13:39:25.853Z,12.20
2018-05-01T13:41:53.102Z,12.20
2018-05-01T13:44:20.257Z,12.00
2018-05-01T13:46:47.117Z,12.30
2018-05-01T13:51:41.248Z,12.40
2018-05-01T13:54:08.135Z,12.40
2018-05-01T13:56:35.458Z,12.20
2018-05-01T13:59:03.025Z,12.10
2018-05-01T14:01:30.389Z,12.30
2018-05-01T14:03:57.336Z,12.10
2018-05-01T14:06:25.636Z,12.20
2018-05-01T14:08:54.172Z,12.60
2018-05-01T14:11:21.566Z,12.60
2018-05-01T14:13:48.619Z,12.80
2018-05-01T14:16:15.878Z,12.70
2018-05-01T14:18:43.343Z,12.60
2018-05-01T14:21:10.195Z,12.50
2018-05-01T14:23:37.039Z,12.20
2018-05-01T14:26:04.197Z,11.80
2018-05-01T14:28:32.069Z,12.00
2018-05-01T14:31:00.861Z,12.20
2018-05-01T14:33:28.406Z,12.10
2018-05-01T14:35:56.000Z,11.90
2018-05-01T14:38:23.660Z,12.00
2018-05-01T14:40:50.734Z,12.00
2018-05-01T14:43:18.381Z,12.10
2018-05-01T14:45:46.361Z,12.00
2018-05-01T14:48:13.512Z,11.90
2018-05-01T14:50:41.179Z,12.10
2018-05-01T14:53:08.234Z,12.40
2018-05-01T14:55:35.490Z,12.50
2018-05-01T14:58:02.749Z,12.30
2018-05-01T15:00:29.804Z,12.00
2018-05-01T15:03:02.235Z,11.90
2018-05-01T15:05:29.541Z,11.70
2018-05-01T15:07:56.490Z,11.70
2018-05-01T15:10:23.752Z,11.80
2018-05-01T15:12:51.517Z,11.80
2018-05-01T15:15:19.073Z,11.60
2018-05-01T15:17:45.936Z,11.80
2018-05-01T15:20:12.879Z,11.90
2018-05-01T15:22:39.833Z,11.80
2018-05-01T15:25:07.710Z,11.90
2018-05-01T15:27:34.822Z,11.80
2018-05-01T15:30:02.470Z,11.80
2018-05-01T15:32:29.381Z,11.80
2018-05-01T15:34:56.427Z,11.60
2018-05-01T15:37:23.691Z,11.50
2018-05-01T15:39:50.543Z,11.50
2018-05-01T15:42:17.696Z,11.50
2018-05-01T15:44:44.552Z,11.70
2018-05-01T15:47:12.739Z,11.70
2018-05-01T15:49:39.988Z,11.60
2018-05-01T15:52:07.150Z,11.70
2018-05-01T15:54:34.200Z,11.90
2018-05-01T15:57:03.476Z,11.90
2018-05-01T15:59:32.087Z,11.90
2018-05-01T16:01:59.859Z,12.10
2018-05-01T16:04:27.627Z,12.20
2018-05-01T16:06:55.504Z,12.00
2018-05-01T16:09:22.643Z,12.00
2018-05-01T16:11:49.506Z,12.00
2018-05-01T16:14:16.752Z,12.00
2018-05-01T16:16:44.022Z,11.90
2018-05-01T16:19:10.972Z,11.90
2018-05-01T16:21:37.824Z,11.70
2018-05-01T16:24:04.978Z,11.70
2018-05-01T16:26:32.337Z,11.70
2018-05-01T16:28:59.494Z,11.80
2018-05-01T16:31:26.474Z,11.80
2018-05-01T16:33:53.730Z,11.70
2018-05-01T16:36:21.576Z,11.70
2018-05-01T16:38:50.267Z,11.60
2018-05-01T16:41:17.115Z,11.60
2018-05-01T16:43:44.476Z,11.80
2018-05-01T16:46:12.349Z,12.10
2018-05-01T16:48:40.530Z,12.00
2018-05-01T16:51:09.221Z,12.10
2018-05-01T16:53:36.996Z,12.30
2018-05-01T16:56:04.249Z,12.40
2018-05-01T16:58:31.509Z,12.40
2018-05-01T17:00:58.670Z,12.40
2018-05-01T17:03:26.238Z,12.40
2018-05-01T17:05:53.589Z,12.40
2018-05-01T17:08:20.439Z,12.40
2018-05-01T17:10:47.286Z,12.30
2018-05-01T17:13:14.163Z,12.30
2018-05-01T17:15:41.090Z,12.20
2018-05-01T17:18:07.936Z,12.10
2018-05-01T17:20:35.935Z,12.10
2018-05-01T17:23:09.718Z,11.80
2018-05-01T17:25:36.771Z,11.80
2018-05-01T17:28:03.628Z,11.50
2018-05-01T17:30:32.312Z,11.40
2018-05-01T17:32:59.466Z,11.20
2018-05-01T17:35:26.624Z,11.00
2018-05-01T17:37:53.780Z,10.90
2018-05-01T17:40:21.966Z,10.50
2018-05-01T17:42:49.114Z,10.40
2018-05-01T17:45:16.373Z,10.30
2018-05-01T17:47:43.531Z,10.20
2018-05-01T17:50:11.198Z,10.10
2018-05-01T17:52:38.048Z,10.00
2018-05-01T17:55:05.303Z,9.80
2018-05-01T17:57:32.552Z,9.70
2018-05-01T18:00:01.666Z,9.50
2018-05-01T18:02:30.046Z,9.50
2018-05-01T18:04:57.409Z,9.40
2018-05-01T18:07:24.564Z,9.30
2018-05-01T18:09:51.515Z,9.10
2018-05-01T18:12:18.465Z,9.00
2018-05-01T18:14:45.629Z,8.80
2018-05-01T18:17:12.882Z,8.70
2018-05-01T18:19:41.269Z,8.40
2018-05-01T18:22:08.624Z,8.40
2018-05-01T18:24:35.793Z,8.30
2018-05-01T18:27:02.636Z,8.30
2018-05-01T18:29:29.998Z,8.20
2018-05-01T18:31:57.148Z,8.20
2018-05-01T18:34:23.944Z,8.00
2018-05-01T18:36:51.560Z,7.90
2018-05-01T18:39:19.537Z,7.70
2018-05-01T18:41:46.590Z,7.70
2018-05-01T18:44:13.885Z,7.60
2018-05-01T18:46:44.065Z,7.60
2018-05-01T18:49:12.663Z,7.60
2018-05-01T18:51:39.614Z,7.60
2018-05-01T18:54:07.293Z,7.40
2018-05-01T18:56:34.847Z,7.30
2018-05-01T18:59:01.698Z,7.20
2018-05-01T19:01:29.363Z,7.10
2018-05-01T19:03:56.725Z,6.90
2018-05-01T19:06:23.878Z,6.80
2018-05-01T19:08:51.431Z,6.70
2018-05-01T19:11:18.703Z,6.60
2018-05-01T19:13:45.863Z,6.50
2018-05-01T19:16:15.599Z,6.40
2018-05-01T19:18:44.202Z,6.40
2018-05-01T19:21:11.609Z,6.30
2018-05-01T19:23:39.294Z,6.30
2018-05-01T19:26:06.886Z,6.30
2018-05-01T19:28:34.851Z,6.20
2018-05-01T19:31:02.737Z,6.20
2018-05-01T19:33:31.692Z,6.20
2018-05-01T19:36:00.681Z,6.10
2018-05-01T19:38:27.965Z,6.10
2018-05-01T19:40:56.508Z,6.00
2018-05-01T19:43:23.867Z,6.00
2018-05-01T19:45:51.103Z,5.90
2018-05-01T19:48:18.573Z,5.80
2018-05-01T19:50:47.087Z,5.70
2018-05-01T19:53:14.840Z,5.60
2018-05-01T19:55:42.929Z,5.60
2018-05-01T19:58:10.502Z,5.50
2018-05-01T20:00:38.301Z,5.40
2018-05-01T20:03:06.915Z,5.40
2018-05-01T20:05:34.151Z,5.40
2018-05-01T20:08:01.099Z,5.40
2018-05-01T20:10:28.870Z,5.40
2018-05-01T20:12:56.139Z,5.50
2018-05-01T20:15:24.193Z,5.60
2018-05-01T20:17:51.054Z,5.50
2018-05-01T20:20:17.900Z,5.60
2018-05-01T20:22:45.059Z,5.60
2018-05-01T20:25:12.011Z,5.60
2018-05-01T20:27:39.478Z,5.60
2018-05-01T20:30:06.322Z,5.60
2018-05-01T20:32:33.172Z,5.60
2018-05-01T20:35:00.229Z,5.60
2018-05-01T20:37:27.670Z,5.60
2018-05-01T20:39:54.945Z,5.70
2018-05-01T20:42:22.715Z,5.70
2018-05-01T20:44:50.331Z,5.80
2018-05-01T20:47:18.097Z,5.70
2018-05-01T20:49:45.512Z,5.70
2018-05-01T20:52:12.880Z,5.60
2018-05-01T20:54:39.727Z,5.50
2018-05-01T20:57:07.595Z,5.50
2018-05-01T20:59:34.605Z,5.50
2018-05-01T21:02:02.010Z,5.50
2018-05-01T21:04:29.527Z,5.50
2018-05-01T21:06:56.834Z,5.50
2018-05-01T21:09:23.900Z,5.60
2018-05-01T21:11:50.638Z,5.80
2018-05-01T21:14:17.688Z,5.90
2018-05-01T21:16:45.047Z,5.90
2018-05-01T21:19:11.793Z,6.00
2018-05-01T21:21:38.645Z,6.00
2018-05-01T21:24:05.494Z,6.00
2018-05-01T21:26:32.653Z,6.00
2018-05-01T21:28:59.454Z,6.00
2018-05-01T21:31:26.756Z,6.00
2018-05-01T21:33:53.604Z,6.10
2018-05-01T21:36:20.776Z,6.10
2018-05-01T21:38:47.547Z,6.10
2018-05-01T21:41:14.460Z,6.20
2018-05-01T21:43:41.512Z,6.20
2018-05-01T21:46:08.770Z,6.30
2018-05-01T21:48:35.723Z,6.30
2018-05-01T21:51:02.778Z,6.30
2018-05-01T21:53:30.343Z,6.30
2018-05-01T21:55:57.295Z,6.30
2018-05-01T21:58:24.551Z,6.30
2018-05-01T22:00:51.503Z,6.30
2018-05-01T22:03:18.781Z,6.30
2018-05-01T22:05:45.736Z,6.30
2018-05-01T22:08:13.491Z,6.20
2018-05-01T22:10:41.457Z,6.10
2018-05-01T22:13:09.125Z,6.00
2018-05-01T22:15:36.219Z,5.90
2018-05-01T22:18:03.435Z,5.80
2018-05-01T22:20:30.614Z,5.80
2018-05-01T22:22:57.442Z,5.60
2018-05-01T22:25:25.518Z,5.40
2018-05-01T22:27:53.188Z,5.40
2018-05-01T22:30:20.042Z,5.40
2018-05-01T22:32:46.883Z,5.30
2018-05-01T22:35:14.143Z,5.20
2018-05-01T22:37:41.503Z,5.20
2018-05-01T22:40:08.659Z,5.10
2018-05-01T22:42:35.508Z,5.00
2018-05-01T22:45:03.278Z,4.90
2018-05-01T22:47:30.438Z,4.80
2018-05-01T22:49:57.287Z,4.80
2018-05-01T22:52:24.643Z,4.80
2018-05-01T22:54:52.310Z,4.90
2018-05-01T22:57:19.060Z,4.90
2018-05-01T22:59:47.549Z,5.00
2018-05-01T23:02:14.700Z,5.10
2018-05-01T23:04:41.860Z,5.20
2018-05-01T23:07:09.524Z,5.30
2018-05-01T23:09:36.784Z,5.30
2018-05-01T23:12:04.780Z,5.40
2018-05-01T23:14:31.948Z,5.40
2018-05-01T23:16:58.973Z,5.60
2018-05-01T23:19:26.480Z,5.70
2018-05-01T23:21:54.201Z,5.70
2018-05-01T23:24:21.150Z,5.70
2018-05-01T23:26:48.513Z,5.90
2018-05-01T23:29:15.466Z,5.90
2018-05-01T23:31:42.414Z,6.00
2018-05-01T23:34:09.675Z,6.10
2018-05-01T23:36:37.187Z,6.00
2018-05-01T23:39:05.008Z,6.00
2018-05-01T23:41:32.071Z,6.10
2018-05-01T23:43:59.471Z,6.10
2018-05-01T23:46:26.380Z,6.10
2018-05-01T23:48:53.734Z,6.10
2018-05-01T23:51:20.583Z,6.10
2018-05-01T23:53:47.536Z,6.20
2018-05-01T23:56:14.383Z,6.20
2018-05-01T23:58:41.751Z,6.20
